Time;durP1;ratioP1;P1;durP2;ratioP2;P2;SDS_P1;SDS_P2;PMS_P1;PMS_P2;Temp;Humidity;BMP_temperature;BMP_pressure;BME280_temperature;BME280_humidity;BME280_pressure;Samples;Min_cycle;Max_cycle;Signal;HPM_P1;HPM_P2
2022/04/08 14:51:56;;;;;;;2.65;0.90;;;;;;;;;;5056879;28;20438;-78
2022/04/08 14:55:22;;;;;;;3.33;0.80;;;;;;;;;;5104492;27;20453;-78
2022/04/08 14:58:20;;;;;;;2.75;0.80;;;;;;;;;;5086708;27;20478;-77
2022/04/08 15:00:46;;;;;;;3.55;0.95;;;;;;;;;;5047302;28;20057;-78
2022/04/08 15:03:12;;;;;;;3.92;0.95;;;;;;;;;;5012714;28;20057;-78
2022/04/08 15:05:39;;;;;;;3.80;1.00;;;;;;;;;;5027731;28;20054;-77
2022/04/08 15:08:06;;;;;;;7.22;1.27;;;;;;;;;;5017622;28;20048;-78
2022/04/08 15:10:32;;;;;;;3.50;1.20;;;;;;;;;;5024935;28;20046;-78
2022/04/08 15:12:59;;;;;;;5.95;0.98;;;;;;;;;;5012489;28;20050;-78
2022/04/08 15:15:27;;;;;;;3.72;1.10;;;;;;;;;;5029832;28;20056;-78
2022/04/08 15:17:53;;;;;;;5.50;0.82;;;;;;;;;;5029982;28;20052;-78
2022/04/08 15:20:21;;;;;;;4.22;0.93;;;;;;;;;;5023237;28;20054;-78
2022/04/08 15:22:47;;;;;;;3.35;0.98;;;;;;;;;;5028940;28;20057;-78
2022/04/08 15:25:14;;;;;;;1.80;0.73;;;;;;;;;;5030550;28;20056;-78
2022/04/08 15:27:40;;;;;;;1.83;0.80;;;;;;;;;;5028913;28;20519;-77
2022/04/08 15:30:07;;;;;;;2.70;0.93;;;;;;;;;;5030029;28;20057;-78
2022/04/08 15:32:35;;;;;;;1.83;0.65;;;;;;;;;;5026447;28;20049;-78
2022/04/08 15:35:01;;;;;;;6.25;0.93;;;;;;;;;;5027702;28;20077;-78
2022/04/08 15:37:27;;;;;;;2.88;0.80;;;;;;;;;;5016905;28;20170;-78
2022/04/08 15:39:54;;;;;;;4.07;1.00;;;;;;;;;;5012702;28;20050;-78
2022/04/08 15:42:21;;;;;;;3.55;0.90;;;;;;;;;;5033570;22;20048;-76
2022/04/08 15:44:47;;;;;;;2.85;0.90;;;;;;;;;;5007010;28;20052;-76
2022/04/08 15:47:13;;;;;;;2.60;0.90;;;;;;;;;;5008082;28;20053;-76
2022/04/08 15:49:42;;;;;;;2.38;0.60;;;;;;;;;;5005249;28;20050;-76
2022/04/08 15:52:08;;;;;;;3.25;0.90;;;;;;;;;;5008001;28;20425;-76
2022/04/08 15:54:37;;;;;;;4.55;1.00;;;;;;;;;;5006051;28;20046;-76
2022/04/08 15:57:04;;;;;;;3.03;0.93;;;;;;;;;;4990750;28;20051;-76
2022/04/08 15:59:31;;;;;;;2.35;0.85;;;;;;;;;;4993955;28;20046;-76
2022/04/08 16:01:57;;;;;;;2.78;0.80;;;;;;;;;;5008278;28;20054;-76
2022/04/08 16:04:24;;;;;;;3.95;0.98;;;;;;;;;;5006736;28;20053;-76
2022/04/08 16:06:51;;;;;;;2.25;0.73;;;;;;;;;;5007788;28;20050;-76
2022/04/08 16:09:18;;;;;;;3.17;1.00;;;;;;;;;;4996329;28;20050;-77
2022/04/08 16:11:44;;;;;;;4.13;1.00;;;;;;;;;;4995520;28;20054;-77
2022/04/08 16:14:11;;;;;;;3.63;0.90;;;;;;;;;;4994945;28;20050;-77
2022/04/08 16:16:37;;;;;;;2.97;0.80;;;;;;;;;;4991185;28;20050;-77
2022/04/08 16:19:04;;;;;;;3.50;0.75;;;;;;;;;;4995329;28;20054;-77
2022/04/08 16:21:30;;;;;;;3.47;0.90;;;;;;;;;;4994966;28;20081;-77
2022/04/08 16:24:00;;;;;;;4.72;0.90;;;;;;;;;;4994795;28;20054;-77
2022/04/08 16:26:26;;;;;;;3.72;0.82;;;;;;;;;;4995223;28;20072;-77
2022/04/08 16:28:52;;;;;;;2.88;0.90;;;;;;;;;;4995111;28;20137;-77
2022/04/08 16:31:19;;;;;;;3.40;0.80;;;;;;;;;;4994565;28;20073;-77
2022/04/08 16:33:45;;;;;;;6.32;1.10;;;;;;;;;;4994133;28;20053;-77
2022/04/08 16:36:11;;;;;;;3.42;0.75;;;;;;;;;;4994746;28;20050;-77
2022/04/08 16:38:38;;;;;;;2.47;0.93;;;;;;;;;;4994844;28;20048;-77
2022/04/08 16:41:05;;;;;;;2.75;1.00;;;;;;;;;;4995027;28;20060;-78
2022/04/08 16:43:32;;;;;;;2.17;0.68;;;;;;;;;;4993399;28;20054;-78
2022/04/08 16:45:58;;;;;;;3.13;0.90;;;;;;;;;;4990219;28;20053;-78
2022/04/08 16:48:24;;;;;;;3.72;0.88;;;;;;;;;;4992542;28;20056;-78
2022/04/08 16:50:51;;;;;;;1.83;0.60;;;;;;;;;;4994508;28;20053;-77
2022/04/08 16:53:18;;;;;;;2.55;0.88;;;;;;;;;;4994147;28;20046;-77
2022/04/08 16:55:44;;;;;;;2.58;0.80;;;;;;;;;;4993749;28;20047;-77
2022/04/08 16:58:12;;;;;;;3.45;0.75;;;;;;;;;;4994576;28;20046;-77
2022/04/08 17:00:38;;;;;;;4.50;0.75;;;;;;;;;;4994382;28;20046;-77
2022/04/08 17:03:04;;;;;;;3.97;0.70;;;;;;;;;;4994263;28;20062;-77
2022/04/08 17:05:31;;;;;;;3.05;0.80;;;;;;;;;;4994110;28;20423;-77
2022/04/08 17:07:57;;;;;;;3.78;1.00;;;;;;;;;;4994699;28;20424;-77
2022/04/08 17:10:24;;;;;;;2.47;0.80;;;;;;;;;;4994167;28;20057;-77
2022/04/08 17:12:51;;;;;;;2.83;0.70;;;;;;;;;;4997915;28;20060;-78
2022/04/08 17:15:19;;;;;;;3.50;1.00;;;;;;;;;;4999396;28;20093;-78
2022/04/08 17:17:45;;;;;;;3.92;0.90;;;;;;;;;;4998266;28;20051;-78
2022/04/08 17:20:12;;;;;;;4.63;0.95;;;;;;;;;;4997311;28;20567;-79
2022/04/08 17:22:38;;;;;;;2.72;0.80;;;;;;;;;;4995388;28;20057;-79
2022/04/08 17:25:05;;;;;;;3.92;0.77;;;;;;;;;;4997479;28;20046;-78
2022/04/08 17:27:32;;;;;;;3.83;1.00;;;;;;;;;;4996652;28;20046;-77
2022/04/08 17:29:58;;;;;;;6.30;1.30;;;;;;;;;;4995829;28;20060;-77
2022/04/08 17:32:26;;;;;;;6.65;1.08;;;;;;;;;;4993801;28;20133;-78
2022/04/08 17:34:52;;;;;;;6.32;0.93;;;;;;;;;;4996584;28;20133;-78
2022/04/08 17:37:18;;;;;;;5.18;0.90;;;;;;;;;;4997645;28;20047;-78
2022/04/08 17:39:45;;;;;;;5.40;0.93;;;;;;;;;;4996688;28;20046;-78
2022/04/08 17:42:12;;;;;;;2.92;0.88;;;;;;;;;;4998481;28;20050;-78
2022/04/08 17:44:38;;;;;;;3.38;0.75;;;;;;;;;;4998257;28;20108;-78
2022/04/08 17:47:06;;;;;;;3.30;0.88;;;;;;;;;;4997564;28;20050;-78
2022/04/08 17:49:32;;;;;;;;;;;;;;;;;;4996839;28;20073;-78
2022/04/08 17:52:00;;;;;;;2.67;0.63;;;;;;;;;;4996315;28;19922;-78
2022/04/08 17:54:27;;;;;;;;;;;;;;;;;;4997046;28;20054;-78
2022/04/08 17:56:54;;;;;;;3.33;1.00;;;;;;;;;;4996906;28;19921;-78
2022/04/08 17:59:20;;;;;;;2.45;0.80;;;;;;;;;;4996407;28;20053;-78
2022/04/08 18:01:49;;;;;;;2.47;0.70;;;;;;;;;;4988488;28;20050;-78
2022/04/08 18:04:15;;;;;;;2.88;0.68;;;;;;;;;;4992964;28;20050;-78
2022/04/08 18:06:43;;;;;;;3.13;1.00;;;;;;;;;;4992098;28;20265;-77
2022/04/08 18:09:11;;;;;;;2.63;0.80;;;;;;;;;;4991800;28;20078;-78
2022/04/08 18:11:37;;;;;;;;;;;;;;;;;;4992161;28;20501;-77
2022/04/08 18:14:03;;;;;;;2.83;1.05;;;;;;;;;;4991228;28;19921;-77
2022/04/08 18:16:29;;;;;;;4.28;0.77;;;;;;;;;;4991524;28;20054;-78
2022/04/08 18:18:56;;;;;;;4.03;1.00;;;;;;;;;;4991081;28;20038;-78
2022/04/08 18:21:23;;;;;;;3.70;0.88;;;;;;;;;;4991139;28;20054;-79
2022/04/08 18:23:49;;;;;;;3.85;1.10;;;;;;;;;;4990697;28;20046;-77
2022/04/08 18:26:18;;;;;;;4.15;0.90;;;;;;;;;;4992212;28;20050;-77
2022/04/08 18:28:45;;;;;;;2.05;0.77;;;;;;;;;;4991583;28;20045;-79
2022/04/08 18:31:12;;;;;;;2.50;0.77;;;;;;;;;;4991741;28;20429;-78
2022/04/08 18:33:38;;;;;;;5.32;1.05;;;;;;;;;;4990151;28;20046;-78
2022/04/08 18:36:06;;;;;;;3.78;0.90;;;;;;;;;;4987548;28;20050;-78
2022/04/08 18:38:32;;;;;;;2.08;0.90;;;;;;;;;;4988799;28;20072;-78
2022/04/08 18:40:59;;;;;;;1.48;0.70;;;;;;;;;;4992248;28;20398;-78
2022/04/08 18:43:26;;;;;;;5.03;1.05;;;;;;;;;;4990767;28;20054;-79
2022/04/08 18:45:53;;;;;;;3.72;0.90;;;;;;;;;;4992039;28;20427;-77
2022/04/08 18:48:19;;;;;;;3.00;0.82;;;;;;;;;;4991247;28;20043;-79
2022/04/08 18:50:47;;;;;;;2.58;0.90;;;;;;;;;;4992380;28;20058;-78
2022/04/08 18:53:13;;;;;;;3.53;1.00;;;;;;;;;;4991660;28;20544;-77
2022/04/08 18:55:39;;;;;;;3.38;1.02;;;;;;;;;;4991588;28;20506;-78
2022/04/08 18:58:06;;;;;;;3.10;0.90;;;;;;;;;;4984414;28;20046;-78
2022/04/08 19:00:34;;;;;;;4.07;1.10;;;;;;;;;;4992458;28;20046;-78
2022/04/08 19:03:00;;;;;;;3.83;0.80;;;;;;;;;;4991385;28;20046;-78
2022/04/08 19:05:27;;;;;;;2.38;1.00;;;;;;;;;;4991679;28;20585;-79
2022/04/08 19:07:53;;;;;;;2.83;1.00;;;;;;;;;;4992634;28;20042;-78
2022/04/08 19:10:20;;;;;;;4.68;1.13;;;;;;;;;;4991993;28;20496;-78
2022/04/08 19:12:46;;;;;;;2.90;1.00;;;;;;;;;;4992313;28;20112;-79
2022/04/08 19:15:12;;;;;;;3.10;0.80;;;;;;;;;;4994660;28;20046;-79
2022/04/08 19:17:40;;;;;;;2.80;0.90;;;;;;;;;;4997843;28;20046;-79
2022/04/08 19:20:07;;;;;;;3.72;1.00;;;;;;;;;;4997642;28;20057;-79
2022/04/08 19:22:33;;;;;;;5.25;1.05;;;;;;;;;;4997281;28;20410;-80
2022/04/08 19:25:02;;;;;;;5.45;1.40;;;;;;;;;;4995622;28;20050;-79
2022/04/08 19:27:29;;;;;;;4.35;1.00;;;;;;;;;;4998084;28;20133;-79
2022/04/08 19:29:55;;;;;;;3.60;1.00;;;;;;;;;;4995924;28;20042;-79
2022/04/08 19:32:23;;;;;;;3.00;1.08;;;;;;;;;;4997160;28;20050;-79
2022/04/08 19:34:51;;;;;;;3.28;1.05;;;;;;;;;;4995112;28;20052;-79
2022/04/08 19:37:18;;;;;;;5.88;1.13;;;;;;;;;;4996702;28;20182;-78
2022/04/08 19:39:44;;;;;;;3.28;1.00;;;;;;;;;;4995633;28;20056;-79
2022/04/08 19:42:10;;;;;;;5.75;1.00;;;;;;;;;;4996414;28;20073;-77
2022/04/08 19:44:37;;;;;;;5.57;1.20;;;;;;;;;;4998557;28;20065;-78
2022/04/08 19:47:04;;;;;;;3.78;1.00;;;;;;;;;;4999790;28;20081;-79
2022/04/08 19:49:32;;;;;;;4.55;1.20;;;;;;;;;;5000448;28;20052;-78
2022/04/08 19:52:00;;;;;;;4.35;1.00;;;;;;;;;;5000646;28;20050;-77
2022/04/08 19:54:26;;;;;;;2.38;1.00;;;;;;;;;;4998872;28;20050;-78
2022/04/08 19:56:52;;;;;;;3.13;0.90;;;;;;;;;;4999297;28;20080;-78
2022/04/08 19:59:19;;;;;;;2.33;1.00;;;;;;;;;;4999552;28;20058;-77
2022/04/08 20:01:45;;;;;;;3.88;0.95;;;;;;;;;;4999896;28;20057;-78
2022/04/08 20:04:12;;;;;;;3.45;1.10;;;;;;;;;;4996965;28;20419;-78
2022/04/08 20:06:38;;;;;;;3.65;0.90;;;;;;;;;;4999113;28;20050;-78
2022/04/08 20:09:06;;;;;;;4.47;1.10;;;;;;;;;;4998779;28;20047;-79
2022/04/08 20:11:32;;;;;;;4.00;1.02;;;;;;;;;;4999651;28;20113;-78
2022/04/08 20:13:59;;;;;;;4.45;1.20;;;;;;;;;;4999058;28;20054;-78
2022/04/08 20:16:25;;;;;;;3.58;1.00;;;;;;;;;;4999115;28;20047;-78
2022/04/08 20:18:52;;;;;;;3.53;1.00;;;;;;;;;;5000207;28;20049;-82
2022/04/08 20:21:19;;;;;;;3.10;1.05;;;;;;;;;;5003102;28;20137;-83
2022/04/08 20:23:45;;;;;;;3.13;1.00;;;;;;;;;;5002309;28;20048;-82
2022/04/08 20:26:13;;;;;;;4.75;1.20;;;;;;;;;;5003275;28;20413;-83
2022/04/08 20:28:40;;;;;;;4.95;1.30;;;;;;;;;;5001783;28;20050;-83
2022/04/08 20:31:06;;;;;;;3.00;1.13;;;;;;;;;;5001991;28;20078;-83
2022/04/08 20:33:33;;;;;;;5.47;1.10;;;;;;;;;;5002181;28;20137;-82
2022/04/08 20:36:06;;;;;;;3.55;1.20;;;;;;;;;;5003278;28;20050;-82
2022/04/08 20:38:32;;;;;;;2.50;0.90;;;;;;;;;;5001931;28;20042;-82
2022/04/08 20:40:58;;;;;;;3.05;1.15;;;;;;;;;;4998134;28;20137;-81
2022/04/08 20:43:28;;;;;;;3.88;1.10;;;;;;;;;;5003601;28;20050;-81
2022/04/08 20:45:55;;;;;;;5.18;1.05;;;;;;;;;;5004374;28;20494;-80
2022/04/08 20:48:21;;;;;;;3.20;0.90;;;;;;;;;;5003959;28;20106;-82
2022/04/08 20:50:48;;;;;;;4.85;1.23;;;;;;;;;;5003515;28;20141;-81
2022/04/08 20:53:16;;;;;;;3.60;1.10;;;;;;;;;;5003859;28;20113;-81
2022/04/08 20:55:42;;;;;;;4.65;1.10;;;;;;;;;;5002812;28;20046;-81
2022/04/08 20:58:09;;;;;;;3.10;1.08;;;;;;;;;;5004198;28;20046;-80
2022/04/08 21:00:37;;;;;;;3.35;1.00;;;;;;;;;;5001091;28;20054;-81
2022/04/08 21:03:03;;;;;;;3.70;1.20;;;;;;;;;;4984160;28;20057;-81
2022/04/08 21:05:29;;;;;;;4.38;1.02;;;;;;;;;;4999575;28;20051;-80
2022/04/08 21:07:56;;;;;;;2.90;1.02;;;;;;;;;;5003510;28;20105;-81
2022/04/08 21:10:22;;;;;;;3.25;0.95;;;;;;;;;;5003330;28;20113;-80
2022/04/08 21:12:49;;;;;;;3.45;1.20;;;;;;;;;;4999716;28;20144;-81
2022/04/08 21:15:16;;;;;;;3.58;1.00;;;;;;;;;;5001883;28;20054;-80
2022/04/08 21:17:43;;;;;;;4.00;1.08;;;;;;;;;;5003094;28;20568;-80
2022/04/08 21:20:10;;;;;;;3.53;1.20;;;;;;;;;;5002866;28;20133;-81
2022/04/08 21:22:37;;;;;;;3.55;1.00;;;;;;;;;;5002933;28;20145;-81
2022/04/08 21:25:04;;;;;;;3.25;0.98;;;;;;;;;;5002938;28;20042;-80
2022/04/08 21:27:30;;;;;;;3.28;0.90;;;;;;;;;;5001501;28;20413;-83
2022/04/08 21:29:57;;;;;;;3.70;1.00;;;;;;;;;;5000856;28;20137;-83
2022/04/08 21:32:23;;;;;;;4.50;1.10;;;;;;;;;;5002348;28;20053;-81
2022/04/08 21:34:51;;;;;;;5.43;1.27;;;;;;;;;;4999965;28;20524;-81
2022/04/08 21:37:17;;;;;;;3.28;1.05;;;;;;;;;;5003062;28;20420;-81
2022/04/08 21:39:43;;;;;;;2.05;0.93;;;;;;;;;;5002598;28;20046;-81
2022/04/08 21:42:10;;;;;;;2.60;1.10;;;;;;;;;;5002193;28;20149;-81
2022/04/08 21:47:07;;;;;;;2.33;1.00;;;;;;;;;;4965122;28;20546;-78
2022/04/08 21:49:33;;;;;;;3.67;1.00;;;;;;;;;;4975471;28;20046;-79
2022/04/08 21:52:01;;;;;;;2.13;0.80;;;;;;;;;;4973718;28;20053;-78
2022/04/08 21:54:27;;;;;;;4.65;1.20;;;;;;;;;;4986783;28;20101;-78
2022/04/08 21:56:54;;;;;;;4.53;1.20;;;;;;;;;;4978120;28;20094;-79
2022/04/08 21:59:21;;;;;;;3.13;1.10;;;;;;;;;;4973296;28;20066;-78
2022/04/08 22:01:47;;;;;;;4.72;1.00;;;;;;;;;;4973662;28;20072;-79
2022/04/08 22:04:14;;;;;;;2.47;1.05;;;;;;;;;;4972702;28;20418;-78
2022/04/08 22:06:40;;;;;;;3.17;1.23;;;;;;;;;;4972996;28;20434;-78
2022/04/08 22:09:08;;;;;;;3.50;1.10;;;;;;;;;;4981735;28;20409;-78
2022/04/08 22:11:35;;;;;;;3.90;1.15;;;;;;;;;;4971094;28;20055;-78
2022/04/08 22:14:01;;;;;;;4.95;1.25;;;;;;;;;;4971809;28;20062;-78
2022/04/08 22:16:28;;;;;;;2.53;0.98;;;;;;;;;;4973686;28;20051;-78
2022/04/08 22:18:54;;;;;;;3.90;0.93;;;;;;;;;;4973209;28;20454;-78
2022/04/08 22:21:22;;;;;;;3.40;1.00;;;;;;;;;;4972555;28;20429;-78
2022/04/08 22:23:48;;;;;;;3.25;1.20;;;;;;;;;;4960770;28;20069;-79
2022/04/08 22:26:16;;;;;;;3.97;1.10;;;;;;;;;;4962705;28;20659;-78
2022/04/08 22:28:42;;;;;;;2.65;0.82;;;;;;;;;;4972865;28;20050;-78
2022/04/08 22:31:08;;;;;;;3.38;0.90;;;;;;;;;;4967589;28;20055;-79
2022/04/08 22:33:35;;;;;;;2.47;1.00;;;;;;;;;;4971124;28;20061;-77
2022/04/08 22:36:01;;;;;;;3.33;0.90;;;;;;;;;;4973179;28;20059;-78
2022/04/08 22:38:28;;;;;;;5.03;1.08;;;;;;;;;;4971343;28;20043;-77
2022/04/08 22:40:54;;;;;;;5.38;1.05;;;;;;;;;;4971706;28;20057;-78
2022/04/08 22:43:22;;;;;;;3.97;1.20;;;;;;;;;;4971490;28;20050;-78
2022/04/08 22:45:49;;;;;;;2.97;1.10;;;;;;;;;;4972647;28;20053;-79
2022/04/08 22:48:16;;;;;;;1.70;0.82;;;;;;;;;;4972321;28;20074;-77
2022/04/08 22:50:42;;;;;;;4.22;1.20;;;;;;;;;;4970318;28;20491;-78
2022/04/08 22:53:08;;;;;;;2.22;0.82;;;;;;;;;;4972173;28;20061;-77
2022/04/08 22:55:35;;;;;;;1.90;0.93;;;;;;;;;;4975508;28;20055;-78
2022/04/08 22:58:54;;;;;;;2.30;0.90;;;;;;;;;;4973129;28;20047;-78
2022/04/08 23:00:48;;;;;;;;;;;;;;;;;;4972397;28;20047;-77
2022/04/08 23:03:16;;;;;;;3.38;1.00;;;;;;;;;;4972573;28;19922;-77
2022/04/08 23:05:42;;;;;;;2.97;0.90;;;;;;;;;;4971900;28;20134;-78
2022/04/08 23:08:08;;;;;;;2.15;0.98;;;;;;;;;;4972309;28;20499;-77
2022/04/08 23:10:35;;;;;;;2.60;0.90;;;;;;;;;;4972040;28;20413;-78
2022/04/08 23:13:03;;;;;;;3.17;1.10;;;;;;;;;;4968802;28;20052;-78
2022/04/08 23:15:29;;;;;;;;;;;;;;;;;;4969913;28;20053;-78
2022/04/08 23:17:56;;;;;;;3.80;1.00;;;;;;;;;;4972166;28;20012;-78
2022/04/08 23:20:23;;;;;;;3.08;0.82;;;;;;;;;;4969969;28;20059;-77
2022/04/08 23:22:50;;;;;;;6.13;0.90;;;;;;;;;;4976351;28;20057;-78
2022/04/08 23:25:16;;;;;;;4.53;1.02;;;;;;;;;;4975485;28;20051;-77
2022/04/08 23:27:42;;;;;;;1.98;0.82;;;;;;;;;;4975433;28;20057;-78
2022/04/08 23:30:09;;;;;;;2.95;1.10;;;;;;;;;;4974500;28;20051;-77
2022/04/08 23:32:35;;;;;;;2.47;1.00;;;;;;;;;;4975847;28;20050;-77
2022/04/08 23:35:02;;;;;;;2.13;1.05;;;;;;;;;;4974273;28;20051;-78
2022/04/08 23:37:29;;;;;;;2.85;1.00;;;;;;;;;;4976126;28;20318;-78
2022/04/08 23:39:56;;;;;;;2.97;0.93;;;;;;;;;;4979559;28;20042;-78
2022/04/08 23:42:22;;;;;;;2.58;0.93;;;;;;;;;;4975019;28;20402;-77
2022/04/08 23:44:49;;;;;;;3.63;0.98;;;;;;;;;;4982416;28;20501;-78
2022/04/08 23:47:15;;;;;;;3.05;0.90;;;;;;;;;;4976491;28;20054;-78
2022/04/08 23:49:41;;;;;;;2.50;0.90;;;;;;;;;;4975552;28;20061;-78
2022/04/08 23:52:08;;;;;;;3.70;1.08;;;;;;;;;;4975480;28;20054;-78
2022/04/08 23:54:35;;;;;;;2.97;1.10;;;;;;;;;;4978570;28;20045;-78
2022/04/08 23:57:02;;;;;;;2.67;0.80;;;;;;;;;;4975576;28;20062;-78
2022/04/08 23:59:28;;;;;;;2.78;0.90;;;;;;;;;;4974362;28;20043;-78
